sensor_id;sensor_type;location;lat;lon;timestamp;temperature;humidity
70706;DHT22;59320;52.316;10.870;2023-05-27T00:00:35;12.30;86.90
70706;DHT22;59320;52.316;10.870;2023-05-27T00:03:02;12.20;87.30
70706;DHT22;59320;52.316;10.870;2023-05-27T00:05:30;12.10;87.20
70706;DHT22;59320;52.316;10.870;2023-05-27T00:07:57;12.10;86.90
70706;DHT22;59320;52.316;10.870;2023-05-27T00:10:26;12.10;87.30
70706;DHT22;59320;52.316;10.870;2023-05-27T00:12:53;12.10;87.70
70706;DHT22;59320;52.316;10.870;2023-05-27T00:15:21;12.10;87.90
70706;DHT22;59320;52.316;10.870;2023-05-27T00:17:48;11.90;88.70
70706;DHT22;59320;52.316;10.870;2023-05-27T00:20:16;11.90;89.20
70706;DHT22;59320;52.316;10.870;2023-05-27T00:22:45;11.80;89.30
70706;DHT22;59320;52.316;10.870;2023-05-27T00:25:13;11.80;89.50
70706;DHT22;59320;52.316;10.870;2023-05-27T00:27:41;11.90;89.00
70706;DHT22;59320;52.316;10.870;2023-05-27T00:30:09;11.90;89.20
70706;DHT22;59320;52.316;10.870;2023-05-27T00:32:36;11.90;89.20
70706;DHT22;59320;52.316;10.870;2023-05-27T00:35:04;11.90;89.40
70706;DHT22;59320;52.316;10.870;2023-05-27T00:37:31;11.90;89.00
70706;DHT22;59320;52.316;10.870;2023-05-27T00:40:00;11.70;89.70
70706;DHT22;59320;52.316;10.870;2023-05-27T00:42:27;11.60;89.70
70706;DHT22;59320;52.316;10.870;2023-05-27T00:44:55;11.50;90.10
70706;DHT22;59320;52.316;10.870;2023-05-27T00:47:23;11.40;90.50
70706;DHT22;59320;52.316;10.870;2023-05-27T00:49:54;11.30;90.30
70706;DHT22;59320;52.316;10.870;2023-05-27T00:52:21;11.30;90.70
70706;DHT22;59320;52.316;10.870;2023-05-27T00:54:48;11.30;90.70
70706;DHT22;59320;52.316;10.870;2023-05-27T00:57:15;11.20;90.70
70706;DHT22;59320;52.316;10.870;2023-05-27T00:59:42;11.10;91.20
70706;DHT22;59320;52.316;10.870;2023-05-27T01:02:11;11.20;90.80
70706;DHT22;59320;52.316;10.870;2023-05-27T01:04:39;11.20;90.50
70706;DHT22;59320;52.316;10.870;2023-05-27T01:07:10;11.30;90.40
70706;DHT22;59320;52.316;10.870;2023-05-27T01:09:47;11.20;90.60
70706;DHT22;59320;52.316;10.870;2023-05-27T01:12:18;11.30;90.70
70706;DHT22;59320;52.316;10.870;2023-05-27T01:14:49;11.30;90.70
70706;DHT22;59320;52.316;10.870;2023-05-27T01:17:20;11.30;90.90
70706;DHT22;59320;52.316;10.870;2023-05-27T01:19:48;11.30;90.90
70706;DHT22;59320;52.316;10.870;2023-05-27T01:22:18;11.20;90.90
70706;DHT22;59320;52.316;10.870;2023-05-27T01:24:47;11.20;91.00
70706;DHT22;59320;52.316;10.870;2023-05-27T01:27:14;11.20;91.20
70706;DHT22;59320;52.316;10.870;2023-05-27T01:29:42;11.10;91.10
70706;DHT22;59320;52.316;10.870;2023-05-27T01:32:14;11.10;91.10
70706;DHT22;59320;52.316;10.870;2023-05-27T01:34:48;11.10;91.20
70706;DHT22;59320;52.316;10.870;2023-05-27T01:37:19;11.00;91.10
70706;DHT22;59320;52.316;10.870;2023-05-27T01:39:50;11.00;91.00
70706;DHT22;59320;52.316;10.870;2023-05-27T01:42:18;11.00;90.80
70706;DHT22;59320;52.316;10.870;2023-05-27T01:44:46;11.00;90.90
70706;DHT22;59320;52.316;10.870;2023-05-27T01:47:13;10.90;91.00
70706;DHT22;59320;52.316;10.870;2023-05-27T01:49:40;10.90;91.00
70706;DHT22;59320;52.316;10.870;2023-05-27T01:52:07;10.90;90.90
70706;DHT22;59320;52.316;10.870;2023-05-27T01:54:35;10.80;91.50
70706;DHT22;59320;52.316;10.870;2023-05-27T01:57:06;10.70;92.40
70706;DHT22;59320;52.316;10.870;2023-05-27T01:59:33;10.60;92.40
70706;DHT22;59320;52.316;10.870;2023-05-27T02:02:00;10.60;92.20
70706;DHT22;59320;52.316;10.870;2023-05-27T02:04:27;10.70;92.20
70706;DHT22;59320;52.316;10.870;2023-05-27T02:06:55;10.70;92.20
70706;DHT22;59320;52.316;10.870;2023-05-27T02:09:24;10.70;92.60
70706;DHT22;59320;52.316;10.870;2023-05-27T02:11:52;10.70;92.40
70706;DHT22;59320;52.316;10.870;2023-05-27T02:14:21;10.70;92.30
70706;DHT22;59320;52.316;10.870;2023-05-27T02:16:48;10.70;92.60
70706;DHT22;59320;52.316;10.870;2023-05-27T02:19:16;10.70;92.50
70706;DHT22;59320;52.316;10.870;2023-05-27T02:21:44;10.60;92.70
70706;DHT22;59320;52.316;10.870;2023-05-27T02:24:11;10.60;93.20
70706;DHT22;59320;52.316;10.870;2023-05-27T02:26:38;10.60;93.10
70706;DHT22;59320;52.316;10.870;2023-05-27T02:29:07;10.60;93.00
70706;DHT22;59320;52.316;10.870;2023-05-27T02:31:35;10.60;93.10
70706;DHT22;59320;52.316;10.870;2023-05-27T02:34:05;10.60;92.90
70706;DHT22;59320;52.316;10.870;2023-05-27T02:36:32;10.50;93.20
70706;DHT22;59320;52.316;10.870;2023-05-27T02:38:59;10.50;93.40
70706;DHT22;59320;52.316;10.870;2023-05-27T02:41:26;10.50;93.60
70706;DHT22;59320;52.316;10.870;2023-05-27T02:43:54;10.50;93.20
70706;DHT22;59320;52.316;10.870;2023-05-27T02:46:21;10.40;93.30
70706;DHT22;59320;52.316;10.870;2023-05-27T02:48:50;10.40;93.20
70706;DHT22;59320;52.316;10.870;2023-05-27T02:51:17;10.40;93.10
70706;DHT22;59320;52.316;10.870;2023-05-27T02:53:44;10.40;93.10
70706;DHT22;59320;52.316;10.870;2023-05-27T02:56:12;10.30;93.20
70706;DHT22;59320;52.316;10.870;2023-05-27T02:58:39;10.30;92.60
70706;DHT22;59320;52.316;10.870;2023-05-27T03:01:07;10.20;92.70
70706;DHT22;59320;52.316;10.870;2023-05-27T03:03:34;10.10;93.20
70706;DHT22;59320;52.316;10.870;2023-05-27T03:06:03;10.10;93.40
70706;DHT22;59320;52.316;10.870;2023-05-27T03:08:30;10.10;93.10
70706;DHT22;59320;52.316;10.870;2023-05-27T03:10:57;10.10;93.20
70706;DHT22;59320;52.316;10.870;2023-05-27T03:13:24;10.10;93.20
70706;DHT22;59320;52.316;10.870;2023-05-27T03:15:52;10.10;93.20
70706;DHT22;59320;52.316;10.870;2023-05-27T03:18:20;10.10;92.90
70706;DHT22;59320;52.316;10.870;2023-05-27T03:20:47;10.00;92.80
70706;DHT22;59320;52.316;10.870;2023-05-27T03:23:15;9.90;92.80
70706;DHT22;59320;52.316;10.870;2023-05-27T03:25:42;9.90;92.80
70706;DHT22;59320;52.316;10.870;2023-05-27T03:28:10;9.80;93.10
70706;DHT22;59320;52.316;10.870;2023-05-27T03:30:37;9.80;92.90
70706;DHT22;59320;52.316;10.870;2023-05-27T03:33:04;9.80;93.20
70706;DHT22;59320;52.316;10.870;2023-05-27T03:35:36;9.80;92.90
70706;DHT22;59320;52.316;10.870;2023-05-27T03:38:03;9.80;92.90
70706;DHT22;59320;52.316;10.870;2023-05-27T03:40:33;9.70;93.00
70706;DHT22;59320;52.316;10.870;2023-05-27T03:43:04;9.80;93.20
70706;DHT22;59320;52.316;10.870;2023-05-27T03:45:32;9.80;93.00
70706;DHT22;59320;52.316;10.870;2023-05-27T03:47:59;9.80;93.10
70706;DHT22;59320;52.316;10.870;2023-05-27T03:50:27;9.80;93.10
70706;DHT22;59320;52.316;10.870;2023-05-27T03:52:54;9.80;93.40
70706;DHT22;59320;52.316;10.870;2023-05-27T03:55:21;9.80;93.50
70706;DHT22;59320;52.316;10.870;2023-05-27T03:57:51;9.90;93.40
70706;DHT22;59320;52.316;10.870;2023-05-27T04:00:18;9.90;93.50
70706;DHT22;59320;52.316;10.870;2023-05-27T04:02:48;9.90;93.40
70706;DHT22;59320;52.316;10.870;2023-05-27T04:05:16;9.90;93.50
70706;DHT22;59320;52.316;10.870;2023-05-27T04:07:43;10.00;93.60
70706;DHT22;59320;52.316;10.870;2023-05-27T04:10:10;10.00;93.30
70706;DHT22;59320;52.316;10.870;2023-05-27T04:12:39;10.00;93.40
70706;DHT22;59320;52.316;10.870;2023-05-27T04:15:09;10.00;93.80
70706;DHT22;59320;52.316;10.870;2023-05-27T04:17:36;10.10;93.50
70706;DHT22;59320;52.316;10.870;2023-05-27T04:20:04;10.10;93.40
70706;DHT22;59320;52.316;10.870;2023-05-27T04:22:39;10.10;93.30
70706;DHT22;59320;52.316;10.870;2023-05-27T04:25:08;10.20;93.40
70706;DHT22;59320;52.316;10.870;2023-05-27T04:27:45;10.20;93.30
70706;DHT22;59320;52.316;10.870;2023-05-27T04:30:15;10.30;93.50
70706;DHT22;59320;52.316;10.870;2023-05-27T04:32:42;10.40;93.60
70706;DHT22;59320;52.316;10.870;2023-05-27T04:35:09;10.50;93.50
70706;DHT22;59320;52.316;10.870;2023-05-27T04:37:37;10.50;93.70
70706;DHT22;59320;52.316;10.870;2023-05-27T04:40:07;10.50;93.70
70706;DHT22;59320;52.316;10.870;2023-05-27T04:42:48;10.50;94.20
70706;DHT22;59320;52.316;10.870;2023-05-27T04:45:17;10.40;94.80
70706;DHT22;59320;52.316;10.870;2023-05-27T04:47:44;10.50;94.40
70706;DHT22;59320;52.316;10.870;2023-05-27T04:50:12;10.60;94.10
70706;DHT22;59320;52.316;10.870;2023-05-27T04:52:41;10.70;93.90
70706;DHT22;59320;52.316;10.870;2023-05-27T04:55:10;10.80;93.60
70706;DHT22;59320;52.316;10.870;2023-05-27T04:57:39;10.80;93.60
70706;DHT22;59320;52.316;10.870;2023-05-27T05:00:10;10.80;93.70
70706;DHT22;59320;52.316;10.870;2023-05-27T05:03:03;10.90;93.60
70706;DHT22;59320;52.316;10.870;2023-05-27T05:05:33;10.90;93.80
70706;DHT22;59320;52.316;10.870;2023-05-27T05:08:00;11.00;93.80
70706;DHT22;59320;52.316;10.870;2023-05-27T05:10:29;11.10;93.80
70706;DHT22;59320;52.316;10.870;2023-05-27T05:12:57;11.20;93.50
70706;DHT22;59320;52.316;10.870;2023-05-27T05:15:25;11.30;93.40
70706;DHT22;59320;52.316;10.870;2023-05-27T05:17:55;11.40;93.40
70706;DHT22;59320;52.316;10.870;2023-05-27T05:20:24;11.40;94.40
70706;DHT22;59320;52.316;10.870;2023-05-27T05:22:51;11.30;96.00
70706;DHT22;59320;52.316;10.870;2023-05-27T05:25:19;11.40;96.40
70706;DHT22;59320;52.316;10.870;2023-05-27T05:27:49;11.30;97.10
70706;DHT22;59320;52.316;10.870;2023-05-27T05:30:16;11.50;96.60
70706;DHT22;59320;52.316;10.870;2023-05-27T05:32:43;11.80;96.20
70706;DHT22;59320;52.316;10.870;2023-05-27T05:35:10;11.90;96.40
70706;DHT22;59320;52.316;10.870;2023-05-27T05:37:44;11.80;97.20
70706;DHT22;59320;52.316;10.870;2023-05-27T05:40:13;11.80;97.30
70706;DHT22;59320;52.316;10.870;2023-05-27T05:42:51;11.80;97.90
70706;DHT22;59320;52.316;10.870;2023-05-27T05:45:19;11.90;97.90
70706;DHT22;59320;52.316;10.870;2023-05-27T05:47:47;12.20;97.50
70706;DHT22;59320;52.316;10.870;2023-05-27T05:50:18;12.20;97.30
70706;DHT22;59320;52.316;10.870;2023-05-27T05:52:48;12.30;97.10
70706;DHT22;59320;52.316;10.870;2023-05-27T05:55:15;12.20;97.50
70706;DHT22;59320;52.316;10.870;2023-05-27T05:57:42;12.50;96.80
70706;DHT22;59320;52.316;10.870;2023-05-27T06:00:10;12.70;96.40
70706;DHT22;59320;52.316;10.870;2023-05-27T06:02:44;13.00;95.80
70706;DHT22;59320;52.316;10.870;2023-05-27T06:05:24;13.20;95.40
70706;DHT22;59320;52.316;10.870;2023-05-27T06:07:53;13.40;94.60
70706;DHT22;59320;52.316;10.870;2023-05-27T06:10:21;13.60;94.20
70706;DHT22;59320;52.316;10.870;2023-05-27T06:12:48;13.70;94.00
70706;DHT22;59320;52.316;10.870;2023-05-27T06:15:15;13.90;93.80
70706;DHT22;59320;52.316;10.870;2023-05-27T06:17:44;13.90;93.80
70706;DHT22;59320;52.316;10.870;2023-05-27T06:20:13;14.00;93.20
70706;DHT22;59320;52.316;10.870;2023-05-27T06:22:40;13.80;93.20
70706;DHT22;59320;52.316;10.870;2023-05-27T06:25:34;13.60;94.00
70706;DHT22;59320;52.316;10.870;2023-05-27T06:28:05;13.70;93.90
70706;DHT22;59320;52.316;10.870;2023-05-27T06:30:32;14.10;93.20
70706;DHT22;59320;52.316;10.870;2023-05-27T06:33:02;14.20;92.60
70706;DHT22;59320;52.316;10.870;2023-05-27T06:35:31;14.30;91.60
70706;DHT22;59320;52.316;10.870;2023-05-27T06:37:59;14.60;91.30
70706;DHT22;59320;52.316;10.870;2023-05-27T06:40:27;14.80;90.80
70706;DHT22;59320;52.316;10.870;2023-05-27T06:42:56;14.70;89.80
70706;DHT22;59320;52.316;10.870;2023-05-27T06:45:41;14.70;89.70
70706;DHT22;59320;52.316;10.870;2023-05-27T06:48:23;15.10;88.00
70706;DHT22;59320;52.316;10.870;2023-05-27T06:50:51;15.20;86.70
70706;DHT22;59320;52.316;10.870;2023-05-27T06:53:18;15.30;86.50
70706;DHT22;59320;52.316;10.870;2023-05-27T06:56:08;15.50;85.60
70706;DHT22;59320;52.316;10.870;2023-05-27T06:59:06;15.50;84.60
70706;DHT22;59320;52.316;10.870;2023-05-27T07:01:33;15.50;86.10
70706;DHT22;59320;52.316;10.870;2023-05-27T07:04:02;15.70;85.80
70706;DHT22;59320;52.316;10.870;2023-05-27T07:06:48;16.00;83.90
70706;DHT22;59320;52.316;10.870;2023-05-27T07:09:16;16.10;83.60
70706;DHT22;59320;52.316;10.870;2023-05-27T07:11:43;16.10;82.20
70706;DHT22;59320;52.316;10.870;2023-05-27T07:14:16;16.00;81.30
70706;DHT22;59320;52.316;10.870;2023-05-27T07:16:43;16.10;80.90
70706;DHT22;59320;52.316;10.870;2023-05-27T07:19:11;15.90;82.00
70706;DHT22;59320;52.316;10.870;2023-05-27T07:21:46;16.30;81.40
70706;DHT22;59320;52.316;10.870;2023-05-27T07:24:18;16.70;80.00
70706;DHT22;59320;52.316;10.870;2023-05-27T07:26:45;16.50;80.50
70706;DHT22;59320;52.316;10.870;2023-05-27T07:29:13;16.40;78.40
70706;DHT22;59320;52.316;10.870;2023-05-27T07:32:02;16.00;78.40
70706;DHT22;59320;52.316;10.870;2023-05-27T07:34:34;16.30;80.60
70706;DHT22;59320;52.316;10.870;2023-05-27T07:37:03;16.70;76.90
70706;DHT22;59320;52.316;10.870;2023-05-27T07:39:30;16.90;75.30
70706;DHT22;59320;52.316;10.870;2023-05-27T07:41:57;17.00;75.90
70706;DHT22;59320;52.316;10.870;2023-05-27T07:44:27;17.00;74.80
70706;DHT22;59320;52.316;10.870;2023-05-27T07:46:54;17.00;76.00
70706;DHT22;59320;52.316;10.870;2023-05-27T07:49:23;17.40;75.50
70706;DHT22;59320;52.316;10.870;2023-05-27T07:52:11;17.60;74.00
70706;DHT22;59320;52.316;10.870;2023-05-27T07:54:38;17.80;71.90
70706;DHT22;59320;52.316;10.870;2023-05-27T07:57:06;17.80;71.50
70706;DHT22;59320;52.316;10.870;2023-05-27T07:59:34;17.90;71.50
70706;DHT22;59320;52.316;10.870;2023-05-27T08:02:02;17.80;70.40
70706;DHT22;59320;52.316;10.870;2023-05-27T08:04:34;17.70;71.40
70706;DHT22;59320;52.316;10.870;2023-05-27T08:07:22;18.00;71.30
70706;DHT22;59320;52.316;10.870;2023-05-27T08:09:58;18.10;68.50
70706;DHT22;59320;52.316;10.870;2023-05-27T08:12:44;17.70;70.10
70706;DHT22;59320;52.316;10.870;2023-05-27T08:15:16;17.90;70.30
70706;DHT22;59320;52.316;10.870;2023-05-27T08:17:54;18.10;70.30
70706;DHT22;59320;52.316;10.870;2023-05-27T08:20:41;18.20;69.80
70706;DHT22;59320;52.316;10.870;2023-05-27T08:23:26;18.20;69.50
70706;DHT22;59320;52.316;10.870;2023-05-27T08:26:15;18.40;69.70
70706;DHT22;59320;52.316;10.870;2023-05-27T08:28:53;18.50;67.30
70706;DHT22;59320;52.316;10.870;2023-05-27T08:31:51;18.40;67.00
70706;DHT22;59320;52.316;10.870;2023-05-27T08:34:19;18.50;67.30
70706;DHT22;59320;52.316;10.870;2023-05-27T08:36:48;18.60;67.30
70706;DHT22;59320;52.316;10.870;2023-05-27T08:39:16;18.50;66.80
70706;DHT22;59320;52.316;10.870;2023-05-27T08:41:52;18.60;67.20
70706;DHT22;59320;52.316;10.870;2023-05-27T08:44:21;18.60;66.70
70706;DHT22;59320;52.316;10.870;2023-05-27T08:46:58;18.70;65.40
70706;DHT22;59320;52.316;10.870;2023-05-27T08:49:29;18.70;66.20
70706;DHT22;59320;52.316;10.870;2023-05-27T08:51:58;18.90;65.30
70706;DHT22;59320;52.316;10.870;2023-05-27T08:54:29;18.70;65.30
70706;DHT22;59320;52.316;10.870;2023-05-27T08:57:03;18.80;65.90
70706;DHT22;59320;52.316;10.870;2023-05-27T08:59:34;19.00;64.80
70706;DHT22;59320;52.316;10.870;2023-05-27T09:02:04;19.20;65.00
70706;DHT22;59320;52.316;10.870;2023-05-27T09:04:34;19.40;64.90
70706;DHT22;59320;52.316;10.870;2023-05-27T09:07:04;19.40;64.00
70706;DHT22;59320;52.316;10.870;2023-05-27T09:09:31;19.30;64.10
70706;DHT22;59320;52.316;10.870;2023-05-27T09:12:02;19.50;62.60
70706;DHT22;59320;52.316;10.870;2023-05-27T09:14:31;19.60;61.40
70706;DHT22;59320;52.316;10.870;2023-05-27T09:17:05;19.40;61.10
70706;DHT22;59320;52.316;10.870;2023-05-27T09:19:34;19.00;61.30
70706;DHT22;59320;52.316;10.870;2023-05-27T09:22:04;19.00;63.70
70706;DHT22;59320;52.316;10.870;2023-05-27T09:24:32;19.20;62.90
70706;DHT22;59320;52.316;10.870;2023-05-27T09:27:00;19.30;61.90
70706;DHT22;59320;52.316;10.870;2023-05-27T09:29:27;19.50;62.10
70706;DHT22;59320;52.316;10.870;2023-05-27T09:31:55;19.60;60.80
70706;DHT22;59320;52.316;10.870;2023-05-27T09:34:22;19.60;60.00
70706;DHT22;59320;52.316;10.870;2023-05-27T09:36:51;19.60;60.60
70706;DHT22;59320;52.316;10.870;2023-05-27T09:39:22;19.70;60.50
70706;DHT22;59320;52.316;10.870;2023-05-27T09:41:53;19.90;59.60
70706;DHT22;59320;52.316;10.870;2023-05-27T09:44:23;20.00;59.20
70706;DHT22;59320;52.316;10.870;2023-05-27T09:46:53;20.20;59.30
70706;DHT22;59320;52.316;10.870;2023-05-27T09:49:21;20.40;58.60
70706;DHT22;59320;52.316;10.870;2023-05-27T09:51:51;20.50;58.00
70706;DHT22;59320;52.316;10.870;2023-05-27T09:54:20;20.10;57.90
70706;DHT22;59320;52.316;10.870;2023-05-27T09:56:49;20.20;58.00
70706;DHT22;59320;52.316;10.870;2023-05-27T09:59:16;20.30;57.30
70706;DHT22;59320;52.316;10.870;2023-05-27T10:01:48;20.40;56.90
70706;DHT22;59320;52.316;10.870;2023-05-27T10:04:16;20.40;57.60
70706;DHT22;59320;52.316;10.870;2023-05-27T10:06:44;20.10;56.80
70706;DHT22;59320;52.316;10.870;2023-05-27T10:09:14;19.90;58.00
70706;DHT22;59320;52.316;10.870;2023-05-27T10:11:45;19.20;56.70
70706;DHT22;59320;52.316;10.870;2023-05-27T10:14:13;19.10;58.90
70706;DHT22;59320;52.316;10.870;2023-05-27T10:16:51;19.10;60.10
70706;DHT22;59320;52.316;10.870;2023-05-27T10:19:19;19.40;59.60
70706;DHT22;59320;52.316;10.870;2023-05-27T10:21:46;19.90;59.20
70706;DHT22;59320;52.316;10.870;2023-05-27T10:24:13;20.30;58.50
70706;DHT22;59320;52.316;10.870;2023-05-27T10:26:41;20.50;57.30
70706;DHT22;59320;52.316;10.870;2023-05-27T10:29:11;20.70;57.00
70706;DHT22;59320;52.316;10.870;2023-05-27T10:31:44;20.90;56.60
70706;DHT22;59320;52.316;10.870;2023-05-27T10:34:14;20.80;55.80
70706;DHT22;59320;52.316;10.870;2023-05-27T10:36:41;20.70;55.40
70706;DHT22;59320;52.316;10.870;2023-05-27T10:39:13;20.70;55.50
70706;DHT22;59320;52.316;10.870;2023-05-27T10:41:41;20.90;55.20
70706;DHT22;59320;52.316;10.870;2023-05-27T10:44:10;20.90;53.60
70706;DHT22;59320;52.316;10.870;2023-05-27T10:46:38;20.80;53.90
70706;DHT22;59320;52.316;10.870;2023-05-27T10:49:10;20.90;54.00
70706;DHT22;59320;52.316;10.870;2023-05-27T10:51:38;20.60;55.00
70706;DHT22;59320;52.316;10.870;2023-05-27T10:54:05;20.60;55.70
70706;DHT22;59320;52.316;10.870;2023-05-27T10:56:33;20.60;54.20
70706;DHT22;59320;52.316;10.870;2023-05-27T10:59:01;20.60;54.50
70706;DHT22;59320;52.316;10.870;2023-05-27T11:01:32;20.50;52.20
70706;DHT22;59320;52.316;10.870;2023-05-27T11:04:00;20.70;53.80
70706;DHT22;59320;52.316;10.870;2023-05-27T11:06:27;20.80;54.60
70706;DHT22;59320;52.316;10.870;2023-05-27T11:08:54;21.10;54.10
70706;DHT22;59320;52.316;10.870;2023-05-27T11:11:22;21.40;52.80
70706;DHT22;59320;52.316;10.870;2023-05-27T11:13:49;21.30;52.70
70706;DHT22;59320;52.316;10.870;2023-05-27T11:16:16;21.10;52.90
70706;DHT22;59320;52.316;10.870;2023-05-27T11:18:46;21.30;53.60
70706;DHT22;59320;52.316;10.870;2023-05-27T11:21:14;21.70;52.60
70706;DHT22;59320;52.316;10.870;2023-05-27T11:23:43;21.70;51.80
70706;DHT22;59320;52.316;10.870;2023-05-27T11:26:15;21.60;51.50
70706;DHT22;59320;52.316;10.870;2023-05-27T11:28:47;21.50;51.80
70706;DHT22;59320;52.316;10.870;2023-05-27T11:31:15;21.30;52.10
70706;DHT22;59320;52.316;10.870;2023-05-27T11:33:45;21.40;53.30
70706;DHT22;59320;52.316;10.870;2023-05-27T11:36:13;21.50;51.90
70706;DHT22;59320;52.316;10.870;2023-05-27T11:38:53;21.70;52.70
70706;DHT22;59320;52.316;10.870;2023-05-27T11:41:22;21.80;52.70
70706;DHT22;59320;52.316;10.870;2023-05-27T11:43:52;21.80;51.30
70706;DHT22;59320;52.316;10.870;2023-05-27T11:46:20;22.10;51.50
70706;DHT22;59320;52.316;10.870;2023-05-27T11:48:48;22.20;51.40
70706;DHT22;59320;52.316;10.870;2023-05-27T11:51:15;22.50;50.50
70706;DHT22;59320;52.316;10.870;2023-05-27T11:53:45;22.60;50.20
70706;DHT22;59320;52.316;10.870;2023-05-27T11:56:12;22.20;50.70
70706;DHT22;59320;52.316;10.870;2023-05-27T11:58:39;22.30;50.60
70706;DHT22;59320;52.316;10.870;2023-05-27T12:01:06;22.20;50.60
70706;DHT22;59320;52.316;10.870;2023-05-27T12:03:34;22.60;50.40
70706;DHT22;59320;52.316;10.870;2023-05-27T12:06:03;22.80;49.90
70706;DHT22;59320;52.316;10.870;2023-05-27T12:08:30;23.00;49.10
70706;DHT22;59320;52.316;10.870;2023-05-27T12:10:57;23.20;49.50
70706;DHT22;59320;52.316;10.870;2023-05-27T12:13:24;23.40;48.60
70706;DHT22;59320;52.316;10.870;2023-05-27T12:15:51;23.00;48.20
70706;DHT22;59320;52.316;10.870;2023-05-27T12:18:18;22.90;48.90
70706;DHT22;59320;52.316;10.870;2023-05-27T12:20:45;22.80;47.80
70706;DHT22;59320;52.316;10.870;2023-05-27T12:23:14;22.40;48.40
70706;DHT22;59320;52.316;10.870;2023-05-27T12:25:41;22.20;49.80
70706;DHT22;59320;52.316;10.870;2023-05-27T12:28:08;22.50;48.80
70706;DHT22;59320;52.316;10.870;2023-05-27T12:30:36;22.80;47.40
70706;DHT22;59320;52.316;10.870;2023-05-27T12:33:04;22.50;47.80
70706;DHT22;59320;52.316;10.870;2023-05-27T12:35:31;22.50;48.70
70706;DHT22;59320;52.316;10.870;2023-05-27T12:37:59;22.90;47.60
70706;DHT22;59320;52.316;10.870;2023-05-27T12:40:29;23.10;46.90
70706;DHT22;59320;52.316;10.870;2023-05-27T12:42:58;22.80;47.00
70706;DHT22;59320;52.316;10.870;2023-05-27T12:45:27;22.50;47.90
70706;DHT22;59320;52.316;10.870;2023-05-27T12:47:54;22.70;48.80
70706;DHT22;59320;52.316;10.870;2023-05-27T12:50:22;23.20;47.60
70706;DHT22;59320;52.316;10.870;2023-05-27T12:52:49;23.30;45.90
70706;DHT22;59320;52.316;10.870;2023-05-27T12:55:18;23.20;46.30
70706;DHT22;59320;52.316;10.870;2023-05-27T12:57:49;23.70;47.10
70706;DHT22;59320;52.316;10.870;2023-05-27T13:00:17;23.90;46.40
70706;DHT22;59320;52.316;10.870;2023-05-27T13:02:45;24.10;46.30
70706;DHT22;59320;52.316;10.870;2023-05-27T13:05:13;24.40;46.00
70706;DHT22;59320;52.316;10.870;2023-05-27T13:07:41;24.80;45.60
70706;DHT22;59320;52.316;10.870;2023-05-27T13:10:21;25.50;46.10
70706;DHT22;59320;52.316;10.870;2023-05-27T13:12:49;26.00;42.70
70706;DHT22;59320;52.316;10.870;2023-05-27T13:15:17;26.00;43.60
70706;DHT22;59320;52.316;10.870;2023-05-27T13:17:44;27.00;42.00
70706;DHT22;59320;52.316;10.870;2023-05-27T13:20:12;27.70;39.90
70706;DHT22;59320;52.316;10.870;2023-05-27T13:22:39;27.50;40.10
70706;DHT22;59320;52.316;10.870;2023-05-27T13:25:07;27.10;40.50
70706;DHT22;59320;52.316;10.870;2023-05-27T13:27:35;26.40;40.20
70706;DHT22;59320;52.316;10.870;2023-05-27T13:30:04;25.70;42.30
70706;DHT22;59320;52.316;10.870;2023-05-27T13:32:32;25.20;44.20
70706;DHT22;59320;52.316;10.870;2023-05-27T13:35:00;25.60;43.60
70706;DHT22;59320;52.316;10.870;2023-05-27T13:37:28;25.80;43.20
70706;DHT22;59320;52.316;10.870;2023-05-27T13:39:56;25.90;42.20
70706;DHT22;59320;52.316;10.870;2023-05-27T13:42:24;26.00;41.80
70706;DHT22;59320;52.316;10.870;2023-05-27T13:44:51;26.00;40.10
70706;DHT22;59320;52.316;10.870;2023-05-27T13:47:19;25.20;41.30
70706;DHT22;59320;52.316;10.870;2023-05-27T13:49:47;24.50;43.70
70706;DHT22;59320;52.316;10.870;2023-05-27T13:52:15;24.60;44.90
70706;DHT22;59320;52.316;10.870;2023-05-27T13:54:42;24.60;43.30
70706;DHT22;59320;52.316;10.870;2023-05-27T13:57:09;24.20;43.50
70706;DHT22;59320;52.316;10.870;2023-05-27T13:59:36;24.40;44.60
70706;DHT22;59320;52.316;10.870;2023-05-27T14:02:03;24.70;43.60
70706;DHT22;59320;52.316;10.870;2023-05-27T14:04:33;25.10;43.20
70706;DHT22;59320;52.316;10.870;2023-05-27T14:07:00;25.30;42.50
70706;DHT22;59320;52.316;10.870;2023-05-27T14:09:27;25.50;42.00
70706;DHT22;59320;52.316;10.870;2023-05-27T14:11:54;25.90;42.00
70706;DHT22;59320;52.316;10.870;2023-05-27T14:14:21;28.10;40.00
70706;DHT22;59320;52.316;10.870;2023-05-27T14:16:49;30.70;37.10
70706;DHT22;59320;52.316;10.870;2023-05-27T14:19:16;32.60;33.30
70706;DHT22;59320;52.316;10.870;2023-05-27T14:21:44;32.40;31.80
70706;DHT22;59320;52.316;10.870;2023-05-27T14:24:11;32.80;31.80
70706;DHT22;59320;52.316;10.870;2023-05-27T14:26:39;33.60;30.50
70706;DHT22;59320;52.316;10.870;2023-05-27T14:29:07;33.30;29.80
70706;DHT22;59320;52.316;10.870;2023-05-27T14:31:34;34.10;29.60
70706;DHT22;59320;52.316;10.870;2023-05-27T14:34:01;34.70;28.90
70706;DHT22;59320;52.316;10.870;2023-05-27T14:36:28;35.80;29.30
70706;DHT22;59320;52.316;10.870;2023-05-27T14:38:56;36.40;28.00
70706;DHT22;59320;52.316;10.870;2023-05-27T14:41:25;37.90;26.70
70706;DHT22;59320;52.316;10.870;2023-05-27T14:43:52;38.60;26.90
70706;DHT22;59320;52.316;10.870;2023-05-27T14:46:19;39.20;26.00
70706;DHT22;59320;52.316;10.870;2023-05-27T14:48:47;39.40;25.30
70706;DHT22;59320;52.316;10.870;2023-05-27T14:51:14;39.20;24.90
70706;DHT22;59320;52.316;10.870;2023-05-27T14:53:42;39.00;24.20
70706;DHT22;59320;52.316;10.870;2023-05-27T14:56:10;38.90;24.80
70706;DHT22;59320;52.316;10.870;2023-05-27T14:58:37;39.80;24.70
70706;DHT22;59320;52.316;10.870;2023-05-27T15:01:04;39.10;24.00
70706;DHT22;59320;52.316;10.870;2023-05-27T15:03:31;39.10;24.30
70706;DHT22;59320;52.316;10.870;2023-05-27T15:05:59;38.50;23.80
70706;DHT22;59320;52.316;10.870;2023-05-27T15:08:27;37.90;24.40
70706;DHT22;59320;52.316;10.870;2023-05-27T15:10:54;38.90;24.40
70706;DHT22;59320;52.316;10.870;2023-05-27T15:13:22;39.80;23.90
70706;DHT22;59320;52.316;10.870;2023-05-27T15:15:49;40.10;22.80
70706;DHT22;59320;52.316;10.870;2023-05-27T15:18:16;39.50;23.40
70706;DHT22;59320;52.316;10.870;2023-05-27T15:20:43;40.20;24.20
70706;DHT22;59320;52.316;10.870;2023-05-27T15:23:11;41.20;23.30
70706;DHT22;59320;52.316;10.870;2023-05-27T15:25:38;41.70;22.70
70706;DHT22;59320;52.316;10.870;2023-05-27T15:28:05;42.40;22.30
70706;DHT22;59320;52.316;10.870;2023-05-27T15:30:33;42.10;21.30